Ong, Nebraska
Current Conditions -  °F | °C
As of 7:10 PM on Tuesday 27 Jan 2015 (Local Time) from KHJH Reporting Station
Clear Clear  
Wind Chill: 47°   Ceiling: Unl
Heat Index: 47°   Visibility: 10mi
Dew Point: 31°   Wind: 3mph
Humidity: 53%   Direction: 110°ESE
Pressure: 29.96"   Gusts: NA
Location:  40.4°N, 97.84°W
Report Text: KHJH 280110Z AUTO 11003KT 10SM CLR 08/M01 A2996 RMK AO2 T00841007
Loading
Personal Weather Stations






























Interactive Weather Map New forecast layout! Learn more

10-Day Weather Forecast

Advertisements
Track Severe Weather on mobile